sensor_id;sensor_type;location;lat;lon;timestamp;pressure;altitude;pressure_sealevel;temperature;humidity
75521;BME280;64102;48.628;9.002;2023-04-24T00:01:25;95106.88;;;8.25;96.36
75521;BME280;64102;48.628;9.002;2023-04-24T00:03:50;95116.78;;;8.37;96.38
75521;BME280;64102;48.628;9.002;2023-04-24T00:06:16;95122.28;;;8.42;95.42
75521;BME280;64102;48.628;9.002;2023-04-24T00:08:42;95120.78;;;8.58;95.00
75521;BME280;64102;48.628;9.002;2023-04-24T00:11:08;95116.81;;;8.63;94.29
75521;BME280;64102;48.628;9.002;2023-04-24T00:13:34;95116.50;;;8.66;94.31
75521;BME280;64102;48.628;9.002;2023-04-24T00:16:00;95110.06;;;8.62;94.63
75521;BME280;64102;48.628;9.002;2023-04-24T00:18:25;95119.06;;;8.66;94.70
75521;BME280;64102;48.628;9.002;2023-04-24T00:20:51;95113.78;;;8.68;93.87
75521;BME280;64102;48.628;9.002;2023-04-24T00:23:16;95117.53;;;8.73;93.91
75521;BME280;64102;48.628;9.002;2023-04-24T00:25:41;95120.47;;;8.78;92.72
75521;BME280;64102;48.628;9.002;2023-04-24T00:28:07;95120.38;;;8.88;91.32
75521;BME280;64102;48.628;9.002;2023-04-24T00:30:32;95115.91;;;8.98;89.61
75521;BME280;64102;48.628;9.002;2023-04-24T00:32:58;95110.34;;;9.11;88.96
75521;BME280;64102;48.628;9.002;2023-04-24T00:35:23;95111.03;;;9.21;87.61
75521;BME280;64102;48.628;9.002;2023-04-24T00:37:48;95105.78;;;9.30;86.87
75521;BME280;64102;48.628;9.002;2023-04-24T00:40:15;95102.06;;;9.33;86.65
75521;BME280;64102;48.628;9.002;2023-04-24T00:42:40;95092.28;;;9.36;86.00
75521;BME280;64102;48.628;9.002;2023-04-24T00:45:06;95087.63;;;9.40;86.47
75521;BME280;64102;48.628;9.002;2023-04-24T00:47:33;95092.13;;;9.38;86.47
75521;BME280;64102;48.628;9.002;2023-04-24T00:50:01;95098.56;;;9.42;86.40
75521;BME280;64102;48.628;9.002;2023-04-24T00:52:27;95089.25;;;9.41;86.97
75521;BME280;64102;48.628;9.002;2023-04-24T00:54:53;95090.22;;;9.48;85.86
75521;BME280;64102;48.628;9.002;2023-04-24T00:57:19;95082.19;;;9.51;86.12
75521;BME280;64102;48.628;9.002;2023-04-24T00:59:45;95078.66;;;9.52;85.70
75521;BME280;64102;48.628;9.002;2023-04-24T01:02:11;95081.06;;;9.46;86.63
75521;BME280;64102;48.628;9.002;2023-04-24T01:04:36;95077.97;;;9.42;87.01
75521;BME280;64102;48.628;9.002;2023-04-24T01:07:02;95075.88;;;9.37;88.13
75521;BME280;64102;48.628;9.002;2023-04-24T01:09:28;95081.81;;;9.38;87.63
75521;BME280;64102;48.628;9.002;2023-04-24T01:11:54;95076.03;;;9.36;87.70
75521;BME280;64102;48.628;9.002;2023-04-24T01:14:20;95069.13;;;9.36;87.59
75521;BME280;64102;48.628;9.002;2023-04-24T01:16:45;95080.69;;;9.32;87.36
75521;BME280;64102;48.628;9.002;2023-04-24T01:19:11;95069.09;;;9.28;87.72
75521;BME280;64102;48.628;9.002;2023-04-24T01:21:38;95075.03;;;9.29;87.84
75521;BME280;64102;48.628;9.002;2023-04-24T01:24:05;95072.59;;;9.19;89.29
75521;BME280;64102;48.628;9.002;2023-04-24T01:26:31;95077.41;;;9.14;88.96
75521;BME280;64102;48.628;9.002;2023-04-24T01:28:56;95069.34;;;9.09;89.42
75521;BME280;64102;48.628;9.002;2023-04-24T01:31:22;95068.03;;;9.05;89.13
75521;BME280;64102;48.628;9.002;2023-04-24T01:33:49;95060.59;;;9.02;88.86
75521;BME280;64102;48.628;9.002;2023-04-24T01:36:16;95062.53;;;9.00;88.55
75521;BME280;64102;48.628;9.002;2023-04-24T01:38:41;95069.47;;;9.08;87.90
75521;BME280;64102;48.628;9.002;2023-04-24T01:41:07;95062.09;;;9.13;87.65
75521;BME280;64102;48.628;9.002;2023-04-24T01:43:32;95064.81;;;9.11;88.92
75521;BME280;64102;48.628;9.002;2023-04-24T01:45:58;95067.09;;;9.06;89.32
75521;BME280;64102;48.628;9.002;2023-04-24T01:48:23;95067.53;;;9.02;91.06
75521;BME280;64102;48.628;9.002;2023-04-24T01:50:48;95067.66;;;8.92;92.31
75521;BME280;64102;48.628;9.002;2023-04-24T01:53:14;95062.13;;;8.79;93.79
75521;BME280;64102;48.628;9.002;2023-04-24T01:55:40;95064.47;;;8.72;95.38
75521;BME280;64102;48.628;9.002;2023-04-24T01:58:06;95064.28;;;8.66;96.49
75521;BME280;64102;48.628;9.002;2023-04-24T02:00:32;95062.31;;;8.60;97.09
75521;BME280;64102;48.628;9.002;2023-04-24T02:02:58;95054.69;;;8.50;98.11
75521;BME280;64102;48.628;9.002;2023-04-24T02:05:23;95061.91;;;8.46;98.38
75521;BME280;64102;48.628;9.002;2023-04-24T02:07:49;95066.84;;;8.40;98.48
75521;BME280;64102;48.628;9.002;2023-04-24T02:10:14;95061.34;;;8.35;99.24
75521;BME280;64102;48.628;9.002;2023-04-24T02:12:39;95070.28;;;8.31;99.28
75521;BME280;64102;48.628;9.002;2023-04-24T02:15:05;95071.53;;;8.27;99.76
75521;BME280;64102;48.628;9.002;2023-04-24T02:17:31;95072.50;;;8.26;99.71
75521;BME280;64102;48.628;9.002;2023-04-24T02:19:56;95071.31;;;8.20;100.00
75521;BME280;64102;48.628;9.002;2023-04-24T02:22:22;95062.75;;;8.29;99.54
75521;BME280;64102;48.628;9.002;2023-04-24T02:24:47;95063.69;;;8.28;99.53
75521;BME280;64102;48.628;9.002;2023-04-24T02:27:12;95057.44;;;8.31;99.68
75521;BME280;64102;48.628;9.002;2023-04-24T02:29:38;95060.81;;;8.31;99.40
75521;BME280;64102;48.628;9.002;2023-04-24T02:32:03;95059.44;;;8.37;98.67
75521;BME280;64102;48.628;9.002;2023-04-24T02:34:29;95062.13;;;8.35;98.68
75521;BME280;64102;48.628;9.002;2023-04-24T02:36:54;95062.94;;;8.36;98.80
75521;BME280;64102;48.628;9.002;2023-04-24T02:39:20;95061.34;;;8.35;98.66
75521;BME280;64102;48.628;9.002;2023-04-24T02:41:46;95053.47;;;8.36;98.98
75521;BME280;64102;48.628;9.002;2023-04-24T02:44:12;95062.38;;;8.42;98.23
75521;BME280;64102;48.628;9.002;2023-04-24T02:46:37;95063.34;;;8.49;97.76
75521;BME280;64102;48.628;9.002;2023-04-24T02:49:02;95057.25;;;8.50;97.78
75521;BME280;64102;48.628;9.002;2023-04-24T02:51:28;95061.78;;;8.48;98.63
75521;BME280;64102;48.628;9.002;2023-04-24T02:53:53;95067.19;;;8.45;99.09
75521;BME280;64102;48.628;9.002;2023-04-24T02:56:19;95065.56;;;8.44;99.10
75521;BME280;64102;48.628;9.002;2023-04-24T02:58:44;95061.25;;;8.44;98.92
75521;BME280;64102;48.628;9.002;2023-04-24T03:01:10;95066.25;;;8.46;99.14
75521;BME280;64102;48.628;9.002;2023-04-24T03:03:37;95065.13;;;8.48;98.96
75521;BME280;64102;48.628;9.002;2023-04-24T03:06:02;95052.72;;;8.44;99.38
75521;BME280;64102;48.628;9.002;2023-04-24T03:08:28;95047.75;;;8.42;99.97
75521;BME280;64102;48.628;9.002;2023-04-24T03:10:53;95051.28;;;8.41;99.66
75521;BME280;64102;48.628;9.002;2023-04-24T03:13:18;95049.97;;;8.37;99.58
75521;BME280;64102;48.628;9.002;2023-04-24T03:15:44;95048.66;;;8.33;100.00
75521;BME280;64102;48.628;9.002;2023-04-24T03:18:11;95060.69;;;8.33;99.92
75521;BME280;64102;48.628;9.002;2023-04-24T03:20:36;95041.56;;;8.35;99.74
75521;BME280;64102;48.628;9.002;2023-04-24T03:23:02;95040.63;;;8.36;99.53
75521;BME280;64102;48.628;9.002;2023-04-24T03:25:28;95044.16;;;8.35;99.38
75521;BME280;64102;48.628;9.002;2023-04-24T03:27:53;95042.38;;;8.36;99.50
75521;BME280;64102;48.628;9.002;2023-04-24T03:30:19;95047.34;;;8.29;99.54
75521;BME280;64102;48.628;9.002;2023-04-24T03:32:45;95045.19;;;8.25;99.64
75521;BME280;64102;48.628;9.002;2023-04-24T03:35:10;95035.50;;;8.19;99.98
75521;BME280;64102;48.628;9.002;2023-04-24T03:37:36;95036.06;;;8.13;100.00
75521;BME280;64102;48.628;9.002;2023-04-24T03:40:02;95030.75;;;8.06;100.00
75521;BME280;64102;48.628;9.002;2023-04-24T03:42:27;95024.28;;;8.02;100.00
75521;BME280;64102;48.628;9.002;2023-04-24T03:44:53;95028.75;;;8.00;100.00
75521;BME280;64102;48.628;9.002;2023-04-24T03:47:18;95014.78;;;7.94;100.00
75521;BME280;64102;48.628;9.002;2023-04-24T03:49:43;95016.72;;;8.00;99.83
75521;BME280;64102;48.628;9.002;2023-04-24T03:52:09;95017.84;;;7.98;99.60
75521;BME280;64102;48.628;9.002;2023-04-24T03:54:34;95025.38;;;7.99;99.06
75521;BME280;64102;48.628;9.002;2023-04-24T03:56:59;95044.03;;;8.01;98.74
75521;BME280;64102;48.628;9.002;2023-04-24T03:59:26;95041.31;;;8.03;98.22
75521;BME280;64102;48.628;9.002;2023-04-24T04:01:52;95040.53;;;8.02;98.39
75521;BME280;64102;48.628;9.002;2023-04-24T04:04:17;95040.34;;;8.04;98.42
75521;BME280;64102;48.628;9.002;2023-04-24T04:06:43;95046.75;;;8.00;99.20
75521;BME280;64102;48.628;9.002;2023-04-24T04:09:09;95046.97;;;8.06;98.82
75521;BME280;64102;48.628;9.002;2023-04-24T04:11:35;95056.34;;;8.16;98.74
75521;BME280;64102;48.628;9.002;2023-04-24T04:14:01;95057.00;;;8.18;98.67
75521;BME280;64102;48.628;9.002;2023-04-24T04:16:26;95064.25;;;8.22;99.28
75521;BME280;64102;48.628;9.002;2023-04-24T04:18:51;95070.28;;;8.31;98.55
75521;BME280;64102;48.628;9.002;2023-04-24T04:21:16;95069.72;;;8.37;97.97
75521;BME280;64102;48.628;9.002;2023-04-24T04:23:42;95076.47;;;8.38;98.11
75521;BME280;64102;48.628;9.002;2023-04-24T04:26:07;95079.53;;;8.41;98.01
75521;BME280;64102;48.628;9.002;2023-04-24T04:28:33;95084.81;;;8.40;98.57
75521;BME280;64102;48.628;9.002;2023-04-24T04:30:58;95078.09;;;8.39;98.47
75521;BME280;64102;48.628;9.002;2023-04-24T04:33:24;95089.31;;;8.38;98.98
75521;BME280;64102;48.628;9.002;2023-04-24T04:35:50;95126.72;;;8.32;99.05
75521;BME280;64102;48.628;9.002;2023-04-24T04:38:19;95133.38;;;7.90;95.26
75521;BME280;64102;48.628;9.002;2023-04-24T04:40:45;95123.81;;;7.55;95.43
75521;BME280;64102;48.628;9.002;2023-04-24T04:43:11;95130.03;;;7.35;97.05
75521;BME280;64102;48.628;9.002;2023-04-24T04:45:38;95138.84;;;7.23;98.07
75521;BME280;64102;48.628;9.002;2023-04-24T04:48:05;95136.16;;;7.14;98.62
75521;BME280;64102;48.628;9.002;2023-04-24T04:50:32;95133.25;;;7.09;98.02
75521;BME280;64102;48.628;9.002;2023-04-24T04:52:58;95131.88;;;7.05;98.73
75521;BME280;64102;48.628;9.002;2023-04-24T04:55:23;95147.56;;;7.02;99.15
75521;BME280;64102;48.628;9.002;2023-04-24T04:57:48;95148.78;;;6.98;98.88
75521;BME280;64102;48.628;9.002;2023-04-24T05:00:14;95142.84;;;6.98;99.84
75521;BME280;64102;48.628;9.002;2023-04-24T05:02:40;95148.38;;;7.03;99.13
75521;BME280;64102;48.628;9.002;2023-04-24T05:05:06;95156.59;;;7.06;99.57
75521;BME280;64102;48.628;9.002;2023-04-24T05:07:32;95154.31;;;7.03;100.00
75521;BME280;64102;48.628;9.002;2023-04-24T05:09:58;95160.25;;;7.04;99.46
75521;BME280;64102;48.628;9.002;2023-04-24T05:12:23;95166.31;;;7.03;100.00
75521;BME280;64102;48.628;9.002;2023-04-24T05:14:48;95164.28;;;7.06;100.00
75521;BME280;64102;48.628;9.002;2023-04-24T05:17:14;95169.16;;;7.09;100.00
75521;BME280;64102;48.628;9.002;2023-04-24T05:19:40;95173.06;;;7.13;99.89
75521;BME280;64102;48.628;9.002;2023-04-24T05:22:21;95179.34;;;7.19;100.00
75521;BME280;64102;48.628;9.002;2023-04-24T05:24:47;95190.19;;;7.23;100.00
75521;BME280;64102;48.628;9.002;2023-04-24T05:27:13;95189.88;;;7.26;100.00
75521;BME280;64102;48.628;9.002;2023-04-24T05:29:38;95200.66;;;7.29;100.00
75521;BME280;64102;48.628;9.002;2023-04-24T05:32:04;95207.41;;;7.40;99.81
75521;BME280;64102;48.628;9.002;2023-04-24T05:34:29;95208.88;;;7.42;99.14
75521;BME280;64102;48.628;9.002;2023-04-24T05:36:55;95200.91;;;7.45;99.58
75521;BME280;64102;48.628;9.002;2023-04-24T05:39:20;95207.38;;;7.49;99.19
75521;BME280;64102;48.628;9.002;2023-04-24T05:41:46;95206.13;;;7.53;99.18
75521;BME280;64102;48.628;9.002;2023-04-24T05:44:11;95213.50;;;7.66;99.89
75521;BME280;64102;48.628;9.002;2023-04-24T05:46:36;95213.91;;;7.71;98.16
75521;BME280;64102;48.628;9.002;2023-04-24T05:49:02;95217.28;;;7.72;96.48
75521;BME280;64102;48.628;9.002;2023-04-24T05:51:28;95218.81;;;7.82;95.43
75521;BME280;64102;48.628;9.002;2023-04-24T05:53:53;95218.56;;;7.85;93.66
75521;BME280;64102;48.628;9.002;2023-04-24T05:56:19;95221.47;;;7.90;93.76
75521;BME280;64102;48.628;9.002;2023-04-24T05:58:45;95221.44;;;8.00;93.94
75521;BME280;64102;48.628;9.002;2023-04-24T06:01:11;95224.34;;;8.15;93.84
75521;BME280;64102;48.628;9.002;2023-04-24T06:03:38;95226.34;;;8.21;93.22
75521;BME280;64102;48.628;9.002;2023-04-24T06:06:05;95231.31;;;8.22;94.40
75521;BME280;64102;48.628;9.002;2023-04-24T06:08:31;95224.69;;;10.02;85.16
75521;BME280;64102;48.628;9.002;2023-04-24T06:10:56;95224.53;;;11.42;78.98
75521;BME280;64102;48.628;9.002;2023-04-24T06:13:21;95217.28;;;12.24;72.95
75521;BME280;64102;48.628;9.002;2023-04-24T06:15:47;95220.69;;;12.78;69.59
75521;BME280;64102;48.628;9.002;2023-04-24T06:18:12;95228.03;;;13.34;67.50
75521;BME280;64102;48.628;9.002;2023-04-24T06:20:38;95224.63;;;14.07;64.57
75521;BME280;64102;48.628;9.002;2023-04-24T06:23:03;95222.09;;;12.04;69.82
75521;BME280;64102;48.628;9.002;2023-04-24T06:25:29;95221.31;;;11.32;74.64
75521;BME280;64102;48.628;9.002;2023-04-24T06:27:55;95221.97;;;11.10;76.58
75521;BME280;64102;48.628;9.002;2023-04-24T06:30:20;95222.00;;;11.02;76.61
75521;BME280;64102;48.628;9.002;2023-04-24T06:32:46;95217.47;;;12.53;71.27
75521;BME280;64102;48.628;9.002;2023-04-24T06:35:11;95225.63;;;13.10;70.87
75521;BME280;64102;48.628;9.002;2023-04-24T06:37:39;95223.22;;;12.09;72.49
75521;BME280;64102;48.628;9.002;2023-04-24T06:40:05;95217.78;;;11.09;76.78
75521;BME280;64102;48.628;9.002;2023-04-24T06:42:30;95224.22;;;11.29;76.17
75521;BME280;64102;48.628;9.002;2023-04-24T06:44:56;95226.50;;;10.92;77.00
75521;BME280;64102;48.628;9.002;2023-04-24T06:47:21;95226.16;;;10.54;80.43
75521;BME280;64102;48.628;9.002;2023-04-24T06:49:47;95225.78;;;10.25;81.87
75521;BME280;64102;48.628;9.002;2023-04-24T06:52:12;95228.91;;;10.03;82.64
75521;BME280;64102;48.628;9.002;2023-04-24T06:54:37;95228.53;;;9.89;82.87
75521;BME280;64102;48.628;9.002;2023-04-24T06:57:03;95234.25;;;9.75;85.08
75521;BME280;64102;48.628;9.002;2023-04-24T06:59:29;95235.19;;;9.66;86.05
75521;BME280;64102;48.628;9.002;2023-04-24T07:01:55;95240.34;;;9.66;86.29
75521;BME280;64102;48.628;9.002;2023-04-24T07:04:20;95242.25;;;9.64;86.92
75521;BME280;64102;48.628;9.002;2023-04-24T07:06:47;95243.53;;;9.09;81.13
75521;BME280;64102;48.628;9.002;2023-04-24T07:09:12;95256.88;;;8.69;81.77
75521;BME280;64102;48.628;9.002;2023-04-24T07:11:39;95265.88;;;8.37;86.18
75521;BME280;64102;48.628;9.002;2023-04-24T07:14:06;95266.97;;;8.07;87.74
75521;BME280;64102;48.628;9.002;2023-04-24T07:16:31;95260.31;;;8.15;88.59
75521;BME280;64102;48.628;9.002;2023-04-24T07:18:56;95267.44;;;8.48;87.51
75521;BME280;64102;48.628;9.002;2023-04-24T07:21:22;95274.94;;;8.94;85.49
75521;BME280;64102;48.628;9.002;2023-04-24T07:23:47;95271.84;;;9.34;82.13
75521;BME280;64102;48.628;9.002;2023-04-24T07:26:12;95278.09;;;9.83;80.15
75521;BME280;64102;48.628;9.002;2023-04-24T07:28:40;95275.72;;;10.24;77.79
75521;BME280;64102;48.628;9.002;2023-04-24T07:31:07;95277.59;;;10.72;76.07
75521;BME280;64102;48.628;9.002;2023-04-24T07:33:33;95271.81;;;11.35;73.02
75521;BME280;64102;48.628;9.002;2023-04-24T07:35:59;95266.63;;;12.22;68.82
75521;BME280;64102;48.628;9.002;2023-04-24T07:38:25;95284.06;;;11.65;70.10
75521;BME280;64102;48.628;9.002;2023-04-24T07:40:51;95283.25;;;11.56;72.70
75521;BME280;64102;48.628;9.002;2023-04-24T07:43:17;95273.56;;;11.83;66.78
75521;BME280;64102;48.628;9.002;2023-04-24T07:45:42;95284.59;;;11.36;68.31
75521;BME280;64102;48.628;9.002;2023-04-24T07:48:08;95292.63;;;11.82;65.60
75521;BME280;64102;48.628;9.002;2023-04-24T07:50:34;95282.81;;;11.45;65.04
75521;BME280;64102;48.628;9.002;2023-04-24T07:53:00;95289.06;;;11.83;64.74
75521;BME280;64102;48.628;9.002;2023-04-24T07:55:25;95287.22;;;12.07;64.64
75521;BME280;64102;48.628;9.002;2023-04-24T07:57:51;95294.00;;;12.08;62.26
75521;BME280;64102;48.628;9.002;2023-04-24T08:00:16;95301.34;;;11.48;66.60
75521;BME280;64102;48.628;9.002;2023-04-24T08:02:42;95289.34;;;10.58;66.35
75521;BME280;64102;48.628;9.002;2023-04-24T08:05:07;95301.13;;;10.53;66.41
75521;BME280;64102;48.628;9.002;2023-04-24T08:07:33;95305.69;;;10.17;67.11
75521;BME280;64102;48.628;9.002;2023-04-24T08:10:00;95309.91;;;10.00;69.95
75521;BME280;64102;48.628;9.002;2023-04-24T08:12:26;95306.94;;;9.87;71.40
75521;BME280;64102;48.628;9.002;2023-04-24T08:14:51;95318.06;;;9.87;71.61
75521;BME280;64102;48.628;9.002;2023-04-24T08:17:17;95324.59;;;10.00;69.67
75521;BME280;64102;48.628;9.002;2023-04-24T08:19:42;95318.66;;;10.41;66.00
75521;BME280;64102;48.628;9.002;2023-04-24T08:22:12;95324.59;;;11.16;65.45
75521;BME280;64102;48.628;9.002;2023-04-24T08:24:38;95326.56;;;11.54;61.47
75521;BME280;64102;48.628;9.002;2023-04-24T08:27:03;95326.41;;;11.40;62.63
75521;BME280;64102;48.628;9.002;2023-04-24T08:29:29;95337.06;;;12.71;60.10
75521;BME280;64102;48.628;9.002;2023-04-24T08:31:54;95331.25;;;12.30;56.94
75521;BME280;64102;48.628;9.002;2023-04-24T08:34:20;95331.38;;;13.07;54.44
75521;BME280;64102;48.628;9.002;2023-04-24T08:36:46;95325.00;;;12.55;54.57
75521;BME280;64102;48.628;9.002;2023-04-24T08:39:11;95336.75;;;12.35;54.61
75521;BME280;64102;48.628;9.002;2023-04-24T08:41:37;95347.59;;;12.31;55.39
75521;BME280;64102;48.628;9.002;2023-04-24T08:44:03;95350.94;;;11.60;56.96
75521;BME280;64102;48.628;9.002;2023-04-24T08:46:30;95356.38;;;11.00;59.55
75521;BME280;64102;48.628;9.002;2023-04-24T08:48:56;95358.13;;;10.75;59.02
75521;BME280;64102;48.628;9.002;2023-04-24T08:51:22;95357.38;;;10.49;58.90
75521;BME280;64102;48.628;9.002;2023-04-24T08:53:48;95368.97;;;10.45;60.02
75521;BME280;64102;48.628;9.002;2023-04-24T08:56:13;95366.91;;;11.31;57.50
75521;BME280;64102;48.628;9.002;2023-04-24T08:58:39;95368.38;;;11.50;56.34
75521;BME280;64102;48.628;9.002;2023-04-24T09:01:05;95367.69;;;11.07;57.38
75521;BME280;64102;48.628;9.002;2023-04-24T09:03:33;95368.06;;;11.85;55.93
75521;BME280;64102;48.628;9.002;2023-04-24T09:05:59;95365.56;;;12.24;52.24
75521;BME280;64102;48.628;9.002;2023-04-24T09:08:26;95376.91;;;13.92;48.46
75521;BME280;64102;48.628;9.002;2023-04-24T09:10:52;95366.44;;;14.29;46.43
75521;BME280;64102;48.628;9.002;2023-04-24T09:13:19;95370.88;;;13.54;47.39
75521;BME280;64102;48.628;9.002;2023-04-24T09:15:45;95375.34;;;14.50;45.71
75521;BME280;64102;48.628;9.002;2023-04-24T09:18:10;95371.41;;;14.54;43.10
75521;BME280;64102;48.628;9.002;2023-04-24T09:23:34;95377.75;;;15.52;42.78
75521;BME280;64102;48.628;9.002;2023-04-24T09:26:01;95365.56;;;15.81;41.40
75521;BME280;64102;48.628;9.002;2023-04-24T09:28:30;95374.53;;;16.27;40.54
75521;BME280;64102;48.628;9.002;2023-04-24T09:31:18;95358.91;;;16.62;38.62
75521;BME280;64102;48.628;9.002;2023-04-24T09:34:01;95376.22;;;15.86;38.37
75521;BME280;64102;48.628;9.002;2023-04-24T09:36:32;95374.25;;;15.88;37.33
75521;BME280;64102;48.628;9.002;2023-04-24T09:39:01;95375.81;;;15.61;37.19
75521;BME280;64102;48.628;9.002;2023-04-24T09:41:27;95384.03;;;15.86;37.24
75521;BME280;64102;48.628;9.002;2023-04-24T09:43:54;95386.81;;;16.40;38.61
75521;BME280;64102;48.628;9.002;2023-04-24T09:46:20;95374.22;;;17.38;36.37
75521;BME280;64102;48.628;9.002;2023-04-24T09:48:47;95374.50;;;15.72;38.26
75521;BME280;64102;48.628;9.002;2023-04-24T09:51:13;95397.69;;;13.84;42.33
75521;BME280;64102;48.628;9.002;2023-04-24T09:53:45;95406.53;;;12.98;46.10
75521;BME280;64102;48.628;9.002;2023-04-24T09:56:11;95398.22;;;14.17;43.58
75521;BME280;64102;48.628;9.002;2023-04-24T09:58:38;95400.69;;;15.91;39.37
75521;BME280;64102;48.628;9.002;2023-04-24T10:01:04;95404.66;;;17.18;36.48
75521;BME280;64102;48.628;9.002;2023-04-24T10:03:30;95412.25;;;17.94;35.58
75521;BME280;64102;48.628;9.002;2023-04-24T10:06:00;95397.16;;;15.35;38.46
75521;BME280;64102;48.628;9.002;2023-04-24T10:08:26;95424.38;;;16.03;36.73
75521;BME280;64102;48.628;9.002;2023-04-24T10:10:52;95418.94;;;16.47;36.09
75521;BME280;64102;48.628;9.002;2023-04-24T10:13:17;95419.66;;;17.70;34.30
75521;BME280;64102;48.628;9.002;2023-04-24T10:15:43;95426.38;;;15.22;39.05
75521;BME280;64102;48.628;9.002;2023-04-24T10:18:10;95420.34;;;13.44;43.06
75521;BME280;64102;48.628;9.002;2023-04-24T10:20:38;95425.78;;;12.96;44.81
75521;BME280;64102;48.628;9.002;2023-04-24T10:23:04;95430.81;;;12.50;47.57
75521;BME280;64102;48.628;9.002;2023-04-24T10:25:32;95441.72;;;12.05;47.80
75521;BME280;64102;48.628;9.002;2023-04-24T10:27:59;95450.13;;;11.75;49.27
75521;BME280;64102;48.628;9.002;2023-04-24T10:30:30;95444.06;;;11.34;49.83
75521;BME280;64102;48.628;9.002;2023-04-24T10:33:00;95464.72;;;11.18;51.14
75521;BME280;64102;48.628;9.002;2023-04-24T10:35:26;95461.44;;;11.00;51.81
75521;BME280;64102;48.628;9.002;2023-04-24T10:37:59;95465.28;;;10.96;53.66
75521;BME280;64102;48.628;9.002;2023-04-24T10:40:30;95461.00;;;11.20;53.83
75521;BME280;64102;48.628;9.002;2023-04-24T10:42:55;95457.47;;;11.30;52.60
75521;BME280;64102;48.628;9.002;2023-04-24T10:45:22;95463.16;;;11.41;52.10
75521;BME280;64102;48.628;9.002;2023-04-24T10:48:08;95464.91;;;11.25;53.59
75521;BME280;64102;48.628;9.002;2023-04-24T10:50:46;95462.28;;;10.66;55.19
75521;BME280;64102;48.628;9.002;2023-04-24T10:53:17;95470.78;;;10.33;55.67
75521;BME280;64102;48.628;9.002;2023-04-24T10:55:44;95468.47;;;11.40;54.74
75521;BME280;64102;48.628;9.002;2023-04-24T10:58:10;95468.59;;;13.23;49.01
75521;BME280;64102;48.628;9.002;2023-04-24T11:00:38;95464.25;;;13.46;47.78
75521;BME280;64102;48.628;9.002;2023-04-24T11:03:22;95464.41;;;15.23;43.52
75521;BME280;64102;48.628;9.002;2023-04-24T11:05:50;95467.78;;;16.45;40.87
75521;BME280;64102;48.628;9.002;2023-04-24T11:08:37;95480.78;;;13.06;46.56
75521;BME280;64102;48.628;9.002;2023-04-24T11:11:28;95475.66;;;12.19;49.80
75521;BME280;64102;48.628;9.002;2023-04-24T11:17:26;95480.34;;;11.75;51.78
75521;BME280;64102;48.628;9.002;2023-04-24T11:19:23;95477.91;;;11.65;51.92
75521;BME280;64102;48.628;9.002;2023-04-24T11:22:03;95488.84;;;11.51;51.38
75521;BME280;64102;48.628;9.002;2023-04-24T11:24:40;95484.72;;;11.16;52.53
75521;BME280;64102;48.628;9.002;2023-04-24T11:27:14;95491.81;;;11.14;53.61
75521;BME280;64102;48.628;9.002;2023-04-24T11:29:42;95491.41;;;10.85;54.19
75521;BME280;64102;48.628;9.002;2023-04-24T11:32:28;95503.09;;;11.63;54.63
75521;BME280;64102;48.628;9.002;2023-04-24T11:37:19;95498.47;;;12.31;50.38
75521;BME280;64102;48.628;9.002;2023-04-24T11:39:44;95491.56;;;13.79;48.20
75521;BME280;64102;48.628;9.002;2023-04-24T11:42:10;95488.44;;;13.69;47.00
75521;BME280;64102;48.628;9.002;2023-04-24T11:44:36;95512.09;;;13.89;47.96
75521;BME280;64102;48.628;9.002;2023-04-24T11:47:05;95504.13;;;13.68;47.58
75521;BME280;64102;48.628;9.002;2023-04-24T11:49:30;95511.03;;;12.59;49.60
75521;BME280;64102;48.628;9.002;2023-04-24T11:51:56;95508.00;;;12.15;51.52
75521;BME280;64102;48.628;9.002;2023-04-24T11:54:21;95514.53;;;11.52;53.63
75521;BME280;64102;48.628;9.002;2023-04-24T11:56:47;95513.47;;;11.21;53.66
75521;BME280;64102;48.628;9.002;2023-04-24T11:59:14;95513.50;;;10.87;54.72
75521;BME280;64102;48.628;9.002;2023-04-24T12:02:02;95525.03;;;11.09;54.54
75521;BME280;64102;48.628;9.002;2023-04-24T12:04:38;95526.03;;;11.16;55.43
75521;BME280;64102;48.628;9.002;2023-04-24T12:07:04;95515.78;;;11.32;52.43
75521;BME280;64102;48.628;9.002;2023-04-24T12:12:08;95528.97;;;10.87;54.21
75521;BME280;64102;48.628;9.002;2023-04-24T12:14:42;95533.09;;;10.72;55.36
75521;BME280;64102;48.628;9.002;2023-04-24T12:17:07;95523.81;;;10.53;56.35
75521;BME280;64102;48.628;9.002;2023-04-24T12:19:33;95529.69;;;10.46;56.91
75521;BME280;64102;48.628;9.002;2023-04-24T12:22:03;95533.91;;;10.47;56.54
75521;BME280;64102;48.628;9.002;2023-04-24T12:24:30;95530.00;;;10.68;55.67
75521;BME280;64102;48.628;9.002;2023-04-24T12:26:56;95536.16;;;10.50;57.20
75521;BME280;64102;48.628;9.002;2023-04-24T12:29:23;95537.28;;;10.47;57.80
75521;BME280;64102;48.628;9.002;2023-04-24T12:31:50;95534.66;;;10.65;58.48
75521;BME280;64102;48.628;9.002;2023-04-24T12:34:22;95537.03;;;10.58;56.99
75521;BME280;64102;48.628;9.002;2023-04-24T12:36:48;95527.81;;;10.82;60.15
75521;BME280;64102;48.628;9.002;2023-04-24T12:39:15;95540.00;;;10.71;59.97
75521;BME280;64102;48.628;9.002;2023-04-24T12:41:50;95539.06;;;10.72;59.34
75521;BME280;64102;48.628;9.002;2023-04-24T12:44:16;95543.09;;;11.01;59.86
75521;BME280;64102;48.628;9.002;2023-04-24T12:46:41;95534.72;;;11.57;58.29
75521;BME280;64102;48.628;9.002;2023-04-24T12:49:07;95525.13;;;12.48;55.43
75521;BME280;64102;48.628;9.002;2023-04-24T12:51:32;95519.69;;;12.82;53.04
75521;BME280;64102;48.628;9.002;2023-04-24T12:53:57;95515.56;;;11.92;55.45
75521;BME280;64102;48.628;9.002;2023-04-24T12:56:23;95523.91;;;11.69;56.84
75521;BME280;64102;48.628;9.002;2023-04-24T12:58:49;95521.09;;;11.39;57.31
75521;BME280;64102;48.628;9.002;2023-04-24T13:01:16;95529.22;;;10.76;56.32
75521;BME280;64102;48.628;9.002;2023-04-24T13:03:41;95525.75;;;10.59;58.82
75521;BME280;64102;48.628;9.002;2023-04-24T13:06:08;95525.59;;;10.87;58.42
75521;BME280;64102;48.628;9.002;2023-04-24T13:08:33;95515.19;;;10.70;56.82
75521;BME280;64102;48.628;9.002;2023-04-24T13:10:58;95525.06;;;10.75;57.24
75521;BME280;64102;48.628;9.002;2023-04-24T13:13:24;95534.81;;;10.63;56.26